sensor_id;sensor_type;location;lat;lon;timestamp;pressure;altitude;pressure_sealevel;temperature;humidity
57900;BME280;60605;53.716;19.940;2024-03-08T00:00:12;101352.00;;;-3.58;95.16
57900;BME280;60605;53.716;19.940;2024-03-08T00:05:38;101345.86;;;-3.63;95.10
57900;BME280;60605;53.716;19.940;2024-03-08T00:10:42;101343.01;;;-3.67;95.57
57900;BME280;60605;53.716;19.940;2024-03-08T00:15:45;101335.25;;;-3.71;95.94
57900;BME280;60605;53.716;19.940;2024-03-08T00:20:48;101331.37;;;-3.76;96.13
57900;BME280;60605;53.716;19.940;2024-03-08T00:25:51;101332.52;;;-3.81;96.22
57900;BME280;60605;53.716;19.940;2024-03-08T00:30:55;101333.27;;;-3.83;96.81
57900;BME280;60605;53.716;19.940;2024-03-08T00:35:58;101336.30;;;-3.85;97.16
57900;BME280;60605;53.716;19.940;2024-03-08T00:41:01;101332.16;;;-3.88;97.47
57900;BME280;60605;53.716;19.940;2024-03-08T00:46:05;101330.25;;;-3.88;97.82
57900;BME280;60605;53.716;19.940;2024-03-08T00:51:08;101326.20;;;-3.86;98.29
57900;BME280;60605;53.716;19.940;2024-03-08T00:56:11;101320.58;;;-3.85;98.49
57900;BME280;60605;53.716;19.940;2024-03-08T01:01:14;101319.23;;;-3.87;98.31
57900;BME280;60605;53.716;19.940;2024-03-08T01:06:21;101317.95;;;-3.91;97.95
57900;BME280;60605;53.716;19.940;2024-03-08T01:11:24;101313.52;;;-3.96;98.03
57900;BME280;60605;53.716;19.940;2024-03-08T01:16:27;101309.69;;;-3.96;98.79
57900;BME280;60605;53.716;19.940;2024-03-08T01:21:31;101306.48;;;-3.94;99.20
57900;BME280;60605;53.716;19.940;2024-03-08T01:26:34;101299.03;;;-3.95;99.02
57900;BME280;60605;53.716;19.940;2024-03-08T01:31:37;101300.48;;;-3.98;98.99
57900;BME280;60605;53.716;19.940;2024-03-08T01:36:40;101297.91;;;-4.00;99.32
57900;BME280;60605;53.716;19.940;2024-03-08T01:41:44;101294.13;;;-4.03;99.47
57900;BME280;60605;53.716;19.940;2024-03-08T01:46:47;101296.64;;;-4.05;99.69
57900;BME280;60605;53.716;19.940;2024-03-08T01:51:52;101293.17;;;-4.06;99.95
57900;BME280;60605;53.716;19.940;2024-03-08T01:56:56;101291.31;;;-4.08;99.95
57900;BME280;60605;53.716;19.940;2024-03-08T02:02:01;101288.41;;;-4.11;100.00
57900;BME280;60605;53.716;19.940;2024-03-08T02:07:06;101284.25;;;-4.12;100.00
57900;BME280;60605;53.716;19.940;2024-03-08T02:12:12;101278.02;;;-4.14;100.00
57900;BME280;60605;53.716;19.940;2024-03-08T02:17:16;101272.33;;;-4.17;100.00
57900;BME280;60605;53.716;19.940;2024-03-08T02:22:20;101267.05;;;-4.14;100.00
57900;BME280;60605;53.716;19.940;2024-03-08T02:27:24;101264.21;;;-4.13;100.00
57900;BME280;60605;53.716;19.940;2024-03-08T02:32:28;101262.13;;;-4.13;100.00
57900;BME280;60605;53.716;19.940;2024-03-08T02:37:33;101255.69;;;-4.13;100.00
57900;BME280;60605;53.716;19.940;2024-03-08T02:42:36;101252.89;;;-4.13;100.00
57900;BME280;60605;53.716;19.940;2024-03-08T02:47:39;101251.55;;;-4.15;100.00
57900;BME280;60605;53.716;19.940;2024-03-08T02:52:43;101245.56;;;-4.20;100.00
57900;BME280;60605;53.716;19.940;2024-03-08T02:57:49;101241.66;;;-4.25;100.00
57900;BME280;60605;53.716;19.940;2024-03-08T03:02:53;101242.13;;;-4.30;100.00
57900;BME280;60605;53.716;19.940;2024-03-08T03:07:57;101238.48;;;-4.38;100.00
57900;BME280;60605;53.716;19.940;2024-03-08T03:13:01;101241.09;;;-4.45;100.00
57900;BME280;60605;53.716;19.940;2024-03-08T03:18:08;101238.36;;;-4.48;100.00
57900;BME280;60605;53.716;19.940;2024-03-08T03:23:12;101234.05;;;-4.50;100.00
57900;BME280;60605;53.716;19.940;2024-03-08T03:28:18;101231.36;;;-4.54;100.00
57900;BME280;60605;53.716;19.940;2024-03-08T03:33:25;101233.17;;;-4.57;100.00
57900;BME280;60605;53.716;19.940;2024-03-08T03:38:28;101232.17;;;-4.58;100.00
57900;BME280;60605;53.716;19.940;2024-03-08T03:43:31;101232.55;;;-4.60;100.00
57900;BME280;60605;53.716;19.940;2024-03-08T03:48:35;101225.48;;;-4.63;100.00
57900;BME280;60605;53.716;19.940;2024-03-08T03:53:39;101218.46;;;-4.69;100.00
57900;BME280;60605;53.716;19.940;2024-03-08T03:58:42;101220.59;;;-4.79;100.00
57900;BME280;60605;53.716;19.940;2024-03-08T04:03:45;101222.70;;;-4.87;100.00
57900;BME280;60605;53.716;19.940;2024-03-08T04:08:48;101220.68;;;-4.91;100.00
57900;BME280;60605;53.716;19.940;2024-03-08T04:13:52;101213.38;;;-4.91;100.00
57900;BME280;60605;53.716;19.940;2024-03-08T04:18:57;101210.77;;;-4.91;100.00
57900;BME280;60605;53.716;19.940;2024-03-08T04:24:00;101208.16;;;-4.91;100.00
57900;BME280;60605;53.716;19.940;2024-03-08T04:29:04;101207.68;;;-4.94;100.00
57900;BME280;60605;53.716;19.940;2024-03-08T04:34:07;101210.77;;;-4.99;100.00
57900;BME280;60605;53.716;19.940;2024-03-08T04:39:11;101207.53;;;-5.03;100.00
57900;BME280;60605;53.716;19.940;2024-03-08T04:44:16;101206.05;;;-5.06;100.00
57900;BME280;60605;53.716;19.940;2024-03-08T04:49:20;101206.48;;;-5.09;100.00
57900;BME280;60605;53.716;19.940;2024-03-08T04:54:24;101205.83;;;-5.12;100.00
57900;BME280;60605;53.716;19.940;2024-03-08T04:59:28;101205.83;;;-5.12;100.00
57900;BME280;60605;53.716;19.940;2024-03-08T05:04:31;101196.41;;;-5.12;100.00
57900;BME280;60605;53.716;19.940;2024-03-08T05:09:34;101192.59;;;-5.11;100.00
57900;BME280;60605;53.716;19.940;2024-03-08T05:14:39;101191.71;;;-5.12;100.00
57900;BME280;60605;53.716;19.940;2024-03-08T05:19:43;101196.77;;;-5.11;100.00
57900;BME280;60605;53.716;19.940;2024-03-08T05:24:47;101198.91;;;-5.06;100.00
57900;BME280;60605;53.716;19.940;2024-03-08T05:29:50;101199.89;;;-4.95;100.00
57900;BME280;60605;53.716;19.940;2024-03-08T05:34:53;101196.46;;;-4.82;100.00
57900;BME280;60605;53.716;19.940;2024-03-08T05:39:57;101194.72;;;-4.67;100.00
57900;BME280;60605;53.716;19.940;2024-03-08T05:45:00;101196.95;;;-4.50;100.00
57900;BME280;60605;53.716;19.940;2024-03-08T05:50:04;101200.28;;;-4.29;100.00
57900;BME280;60605;53.716;19.940;2024-03-08T05:55:08;101195.09;;;-4.03;100.00
57900;BME280;60605;53.716;19.940;2024-03-08T06:00:13;101194.10;;;-3.18;100.00
57900;BME280;60605;53.716;19.940;2024-03-08T06:05:18;101189.41;;;-1.15;100.00
57900;BME280;60605;53.716;19.940;2024-03-08T06:10:22;101191.52;;;1.36;100.00
57900;BME280;60605;53.716;19.940;2024-03-08T06:15:25;101193.35;;;3.80;99.65
57900;BME280;60605;53.716;19.940;2024-03-08T06:20:28;101193.22;;;6.07;90.62
57900;BME280;60605;53.716;19.940;2024-03-08T06:25:31;101197.23;;;8.03;82.66
57900;BME280;60605;53.716;19.940;2024-03-08T06:30:35;101199.32;;;9.78;75.68
57900;BME280;60605;53.716;19.940;2024-03-08T06:35:38;101205.41;;;11.26;69.16
57900;BME280;60605;53.716;19.940;2024-03-08T06:40:41;101205.05;;;12.54;63.63
57900;BME280;60605;53.716;19.940;2024-03-08T06:45:45;101203.22;;;13.82;59.79
57900;BME280;60605;53.716;19.940;2024-03-08T06:50:51;101201.91;;;15.04;56.81
57900;BME280;60605;53.716;19.940;2024-03-08T06:55:55;101200.92;;;15.91;52.33
57900;BME280;60605;53.716;19.940;2024-03-08T07:00:59;101204.29;;;16.67;49.83
57900;BME280;60605;53.716;19.940;2024-03-08T07:06:04;101203.77;;;17.59;46.11
57900;BME280;60605;53.716;19.940;2024-03-08T07:11:10;101205.22;;;17.76;43.01
57900;BME280;60605;53.716;19.940;2024-03-08T07:16:17;101203.58;;;18.41;42.04
57900;BME280;60605;53.716;19.940;2024-03-08T07:21:21;101205.40;;;18.90;39.71
57900;BME280;60605;53.716;19.940;2024-03-08T07:26:25;101207.41;;;19.70;37.84
57900;BME280;60605;53.716;19.940;2024-03-08T07:31:28;101211.30;;;20.40;35.63
57900;BME280;60605;53.716;19.940;2024-03-08T07:36:47;101202.53;;;21.05;34.31
57900;BME280;60605;53.716;19.940;2024-03-08T07:41:53;101196.67;;;21.56;33.25
57900;BME280;60605;53.716;19.940;2024-03-08T07:46:58;101197.67;;;22.33;32.43
57900;BME280;60605;53.716;19.940;2024-03-08T07:52:02;101198.57;;;22.87;30.73
57900;BME280;60605;53.716;19.940;2024-03-08T07:57:07;101202.08;;;22.71;29.80
57900;BME280;60605;53.716;19.940;2024-03-08T08:02:11;101198.25;;;23.22;30.41
57900;BME280;60605;53.716;19.940;2024-03-08T08:07:14;101198.41;;;24.14;29.21
57900;BME280;60605;53.716;19.940;2024-03-08T08:12:17;101192.84;;;24.75;28.05
57900;BME280;60605;53.716;19.940;2024-03-08T08:17:20;101184.07;;;25.74;28.67
57900;BME280;60605;53.716;19.940;2024-03-08T08:22:23;101183.90;;;26.86;27.45
57900;BME280;60605;53.716;19.940;2024-03-08T08:27:27;101184.42;;;27.46;26.35
57900;BME280;60605;53.716;19.940;2024-03-08T08:32:30;101182.17;;;27.80;25.58
57900;BME280;60605;53.716;19.940;2024-03-08T08:37:33;101178.36;;;28.22;25.08
57900;BME280;60605;53.716;19.940;2024-03-08T08:42:40;101173.51;;;28.64;24.78
57900;BME280;60605;53.716;19.940;2024-03-08T08:47:44;101164.79;;;29.26;24.61
57900;BME280;60605;53.716;19.940;2024-03-08T08:52:48;101159.82;;;29.97;24.02
57900;BME280;60605;53.716;19.940;2024-03-08T08:57:53;101154.86;;;30.38;23.28
57900;BME280;60605;53.716;19.940;2024-03-08T09:02:57;101155.05;;;30.72;22.41
57900;BME280;60605;53.716;19.940;2024-03-08T09:08:01;101153.85;;;30.79;22.03
57900;BME280;60605;53.716;19.940;2024-03-08T09:13:06;101152.41;;;31.12;22.27
57900;BME280;60605;53.716;19.940;2024-03-08T09:18:11;101147.77;;;31.68;21.31
57900;BME280;60605;53.716;19.940;2024-03-08T09:23:14;101140.58;;;31.72;20.21
57900;BME280;60605;53.716;19.940;2024-03-08T09:28:19;101138.21;;;31.58;20.24
57900;BME280;60605;53.716;19.940;2024-03-08T09:33:23;101138.38;;;31.86;20.47
57900;BME280;60605;53.716;19.940;2024-03-08T09:38:27;101135.22;;;32.18;20.27
57900;BME280;60605;53.716;19.940;2024-03-08T09:43:30;101133.52;;;32.46;19.88
57900;BME280;60605;53.716;19.940;2024-03-08T09:48:36;101131.46;;;32.75;19.45
57900;BME280;60605;53.716;19.940;2024-03-08T09:53:39;101128.45;;;32.63;18.92
57900;BME280;60605;53.716;19.940;2024-03-08T09:58:42;101123.63;;;32.54;19.11
57900;BME280;60605;53.716;19.940;2024-03-08T10:04:06;101120.98;;;32.27;18.80
57900;BME280;60605;53.716;19.940;2024-03-08T10:09:09;101119.55;;;32.11;18.47
57900;BME280;60605;53.716;19.940;2024-03-08T10:14:13;101116.77;;;31.89;18.70
57900;BME280;60605;53.716;19.940;2024-03-08T10:19:19;101110.65;;;31.01;18.99
57900;BME280;60605;53.716;19.940;2024-03-08T10:24:23;101098.05;;;26.76;21.06
57900;BME280;60605;53.716;19.940;2024-03-08T10:29:27;101092.29;;;22.41;23.66
57900;BME280;60605;53.716;19.940;2024-03-08T10:34:31;101094.36;;;18.93;26.12
57900;BME280;60605;53.716;19.940;2024-03-08T10:39:34;101093.58;;;16.30;29.12
57900;BME280;60605;53.716;19.940;2024-03-08T10:44:58;101087.69;;;14.45;31.49
57900;BME280;60605;53.716;19.940;2024-03-08T10:50:18;101085.86;;;13.11;33.69
57900;BME280;60605;53.716;19.940;2024-03-08T10:55:25;101083.52;;;12.16;35.31
57900;BME280;60605;53.716;19.940;2024-03-08T11:00:30;101082.20;;;11.46;36.02
57900;BME280;60605;53.716;19.940;2024-03-08T11:05:41;101075.50;;;10.91;36.42
57900;BME280;60605;53.716;19.940;2024-03-08T11:10:48;101072.04;;;10.48;37.86
57900;BME280;60605;53.716;19.940;2024-03-08T11:15:57;101069.14;;;10.21;38.92
57900;BME280;60605;53.716;19.940;2024-03-08T11:21:03;101062.62;;;9.97;40.52
57900;BME280;60605;53.716;19.940;2024-03-08T11:26:23;101056.18;;;9.79;41.70
57900;BME280;60605;53.716;19.940;2024-03-08T11:31:27;101059.44;;;9.61;42.18
57900;BME280;60605;53.716;19.940;2024-03-08T11:36:31;101052.11;;;9.38;42.33
57900;BME280;60605;53.716;19.940;2024-03-08T11:41:40;101045.84;;;9.26;43.03
57900;BME280;60605;53.716;19.940;2024-03-08T11:46:44;101038.34;;;9.22;42.80
57900;BME280;60605;53.716;19.940;2024-03-08T11:51:53;101033.64;;;9.22;42.68
57900;BME280;60605;53.716;19.940;2024-03-08T11:56:57;101030.12;;;9.24;43.02
57900;BME280;60605;53.716;19.940;2024-03-08T12:02:04;101025.08;;;9.18;43.12
57900;BME280;60605;53.716;19.940;2024-03-08T12:07:09;101019.21;;;9.09;42.73
57900;BME280;60605;53.716;19.940;2024-03-08T12:12:15;101019.05;;;9.07;43.34
57900;BME280;60605;53.716;19.940;2024-03-08T12:17:18;101017.05;;;9.05;43.83
57900;BME280;60605;53.716;19.940;2024-03-08T12:22:24;101012.92;;;9.01;43.89
57900;BME280;60605;53.716;19.940;2024-03-08T12:27:28;101009.77;;;8.96;43.55
57900;BME280;60605;53.716;19.940;2024-03-08T12:32:31;101004.15;;;8.95;43.91
57900;BME280;60605;53.716;19.940;2024-03-08T12:37:34;101001.08;;;8.96;44.00
57900;BME280;60605;53.716;19.940;2024-03-08T12:42:38;101001.41;;;8.94;44.26
57900;BME280;60605;53.716;19.940;2024-03-08T12:47:42;100996.67;;;8.95;45.34
57900;BME280;60605;53.716;19.940;2024-03-08T12:52:45;100987.14;;;8.97;45.47
57900;BME280;60605;53.716;19.940;2024-03-08T12:57:49;100985.39;;;8.96;45.59
57900;BME280;60605;53.716;19.940;2024-03-08T13:02:53;100981.56;;;8.90;45.09
57900;BME280;60605;53.716;19.940;2024-03-08T13:07:56;100976.96;;;8.85;44.98
57900;BME280;60605;53.716;19.940;2024-03-08T13:13:00;100970.98;;;8.80;44.90
57900;BME280;60605;53.716;19.940;2024-03-08T13:18:03;100967.14;;;8.73;44.75
57900;BME280;60605;53.716;19.940;2024-03-08T13:23:08;100962.11;;;8.65;44.83
57900;BME280;60605;53.716;19.940;2024-03-08T13:28:12;100955.95;;;8.55;45.05
57900;BME280;60605;53.716;19.940;2024-03-08T13:33:16;100955.73;;;8.49;45.07
57900;BME280;60605;53.716;19.940;2024-03-08T13:38:20;100951.39;;;8.43;45.24
57900;BME280;60605;53.716;19.940;2024-03-08T13:43:23;100945.23;;;8.38;44.97
57900;BME280;60605;53.716;19.940;2024-03-08T13:48:27;100939.83;;;8.34;44.01
57900;BME280;60605;53.716;19.940;2024-03-08T13:53:31;100935.87;;;8.31;43.57
57900;BME280;60605;53.716;19.940;2024-03-08T13:58:36;100931.46;;;8.25;43.19
57900;BME280;60605;53.716;19.940;2024-03-08T14:03:40;100932.45;;;8.22;43.12
57900;BME280;60605;53.716;19.940;2024-03-08T14:08:45;100929.17;;;8.20;42.81
57900;BME280;60605;53.716;19.940;2024-03-08T14:13:48;100927.31;;;8.17;43.26
57900;BME280;60605;53.716;19.940;2024-03-08T14:18:51;100925.77;;;8.10;43.62
57900;BME280;60605;53.716;19.940;2024-03-08T14:23:55;100924.15;;;8.03;43.81
57900;BME280;60605;53.716;19.940;2024-03-08T14:28:59;100920.14;;;7.98;43.73
57900;BME280;60605;53.716;19.940;2024-03-08T14:34:03;100915.02;;;7.93;44.29
57900;BME280;60605;53.716;19.940;2024-03-08T14:39:07;100910.86;;;7.87;44.55
57900;BME280;60605;53.716;19.940;2024-03-08T14:44:10;100905.17;;;7.78;43.98
57900;BME280;60605;53.716;19.940;2024-03-08T14:49:14;100899.15;;;7.71;43.44
57900;BME280;60605;53.716;19.940;2024-03-08T14:54:19;100893.30;;;7.64;43.11
57900;BME280;60605;53.716;19.940;2024-03-08T14:59:25;100887.63;;;7.57;43.12
57900;BME280;60605;53.716;19.940;2024-03-08T15:04:32;100883.36;;;7.48;43.74
57900;BME280;60605;53.716;19.940;2024-03-08T15:09:41;100878.06;;;7.38;44.55
57900;BME280;60605;53.716;19.940;2024-03-08T15:14:46;100876.20;;;7.28;45.57
57900;BME280;60605;53.716;19.940;2024-03-08T15:19:49;100871.88;;;7.17;46.12
57900;BME280;60605;53.716;19.940;2024-03-08T15:24:54;100869.08;;;7.05;46.08
57900;BME280;60605;53.716;19.940;2024-03-08T15:29:58;100865.23;;;6.90;46.49
57900;BME280;60605;53.716;19.940;2024-03-08T15:35:02;100859.48;;;6.75;47.02
57900;BME280;60605;53.716;19.940;2024-03-08T15:40:07;100858.86;;;6.59;47.02
57900;BME280;60605;53.716;19.940;2024-03-08T15:45:11;100863.80;;;6.43;47.55
57900;BME280;60605;53.716;19.940;2024-03-08T15:50:23;100867.67;;;6.27;48.38
57900;BME280;60605;53.716;19.940;2024-03-08T15:55:27;100865.89;;;6.10;49.35
57900;BME280;60605;53.716;19.940;2024-03-08T16:00:33;100864.65;;;5.92;50.16
57900;BME280;60605;53.716;19.940;2024-03-08T16:05:38;100864.48;;;5.74;50.83
57900;BME280;60605;53.716;19.940;2024-03-08T16:10:46;100862.83;;;5.55;51.40
57900;BME280;60605;53.716;19.940;2024-03-08T16:15:53;100860.92;;;5.34;52.06
57900;BME280;60605;53.716;19.940;2024-03-08T16:21:01;100855.26;;;5.11;52.91
57900;BME280;60605;53.716;19.940;2024-03-08T16:26:07;100853.64;;;4.88;54.33
57900;BME280;60605;53.716;19.940;2024-03-08T16:31:12;100858.04;;;4.65;54.79
57900;BME280;60605;53.716;19.940;2024-03-08T16:36:17;100855.56;;;4.38;55.41
57900;BME280;60605;53.716;19.940;2024-03-08T16:41:21;100854.65;;;4.12;56.19
57900;BME280;60605;53.716;19.940;2024-03-08T16:46:25;100851.25;;;3.85;57.14
57900;BME280;60605;53.716;19.940;2024-03-08T16:51:34;100854.73;;;3.58;58.17
57900;BME280;60605;53.716;19.940;2024-03-08T16:56:38;100855.05;;;3.29;59.35
57900;BME280;60605;53.716;19.940;2024-03-08T17:01:41;100855.52;;;3.04;60.68
57900;BME280;60605;53.716;19.940;2024-03-08T17:06:44;100861.20;;;2.80;61.68
57900;BME280;60605;53.716;19.940;2024-03-08T17:11:48;100860.80;;;2.57;62.81
57900;BME280;60605;53.716;19.940;2024-03-08T17:16:54;100859.45;;;2.34;63.79
57900;BME280;60605;53.716;19.940;2024-03-08T17:21:59;100857.98;;;2.11;64.81
57900;BME280;60605;53.716;19.940;2024-03-08T17:27:03;100859.45;;;1.88;65.76
57900;BME280;60605;53.716;19.940;2024-03-08T17:32:07;100855.44;;;1.64;66.48
57900;BME280;60605;53.716;19.940;2024-03-08T17:37:10;100857.88;;;1.42;67.34
57900;BME280;60605;53.716;19.940;2024-03-08T17:42:14;100856.03;;;1.20;68.18
57900;BME280;60605;53.716;19.940;2024-03-08T17:47:17;100855.83;;;1.00;68.99
57900;BME280;60605;53.716;19.940;2024-03-08T17:52:21;100856.27;;;0.82;69.72
57900;BME280;60605;53.716;19.940;2024-03-08T17:57:26;100855.23;;;0.64;70.53
57900;BME280;60605;53.716;19.940;2024-03-08T18:02:30;100855.57;;;0.47;71.01
57900;BME280;60605;53.716;19.940;2024-03-08T18:07:33;100855.68;;;0.30;71.99
57900;BME280;60605;53.716;19.940;2024-03-08T18:12:37;100852.42;;;0.14;72.64
57900;BME280;60605;53.716;19.940;2024-03-08T18:17:40;100848.95;;;-0.02;73.11
57900;BME280;60605;53.716;19.940;2024-03-08T18:22:44;100845.78;;;-0.16;74.07
57900;BME280;60605;53.716;19.940;2024-03-08T18:27:49;100845.62;;;-0.28;74.80
57900;BME280;60605;53.716;19.940;2024-03-08T18:32:52;100846.30;;;-0.39;75.31
57900;BME280;60605;53.716;19.940;2024-03-08T18:37:56;100846.86;;;-0.51;75.85
57900;BME280;60605;53.716;19.940;2024-03-08T18:42:59;100853.65;;;-0.61;76.32
57900;BME280;60605;53.716;19.940;2024-03-08T18:48:06;100848.55;;;-0.73;76.94
57900;BME280;60605;53.716;19.940;2024-03-08T18:53:11;100850.63;;;-0.84;77.56
57900;BME280;60605;53.716;19.940;2024-03-08T18:58:16;100848.08;;;-0.94;79.33
57900;BME280;60605;53.716;19.940;2024-03-08T19:03:32;100846.73;;;-0.99;80.73
57900;BME280;60605;53.716;19.940;2024-03-08T19:08:37;100844.89;;;-0.97;82.30
57900;BME280;60605;53.716;19.940;2024-03-08T19:13:40;100844.45;;;-0.91;82.70
57900;BME280;60605;53.716;19.940;2024-03-08T19:18:44;100842.90;;;-0.92;82.26
57900;BME280;60605;53.716;19.940;2024-03-08T19:23:48;100844.00;;;-0.92;82.67
57900;BME280;60605;53.716;19.940;2024-03-08T19:28:51;100842.69;;;-0.95;82.90
57900;BME280;60605;53.716;19.940;2024-03-08T19:33:54;100840.84;;;-1.01;82.96
57900;BME280;60605;53.716;19.940;2024-03-08T19:39:21;100849.52;;;-1.06;83.32
57900;BME280;60605;53.716;19.940;2024-03-08T19:44:25;100849.14;;;-1.14;83.46
57900;BME280;60605;53.716;19.940;2024-03-08T19:49:28;100848.69;;;-1.20;83.94
57900;BME280;60605;53.716;19.940;2024-03-08T19:54:33;100847.94;;;-1.22;84.40
57900;BME280;60605;53.716;19.940;2024-03-08T19:59:38;100847.23;;;-1.27;84.67
57900;BME280;60605;53.716;19.940;2024-03-08T20:04:44;100844.73;;;-1.30;85.61
57900;BME280;60605;53.716;19.940;2024-03-08T20:09:49;100841.90;;;-1.29;86.59
57900;BME280;60605;53.716;19.940;2024-03-08T20:14:53;100837.73;;;-1.26;87.25
57900;BME280;60605;53.716;19.940;2024-03-08T20:19:57;100834.05;;;-1.26;87.26
57900;BME280;60605;53.716;19.940;2024-03-08T20:25:01;100834.67;;;-1.32;86.88
57900;BME280;60605;53.716;19.940;2024-03-08T20:30:05;100834.86;;;-1.45;86.42
57900;BME280;60605;53.716;19.940;2024-03-08T20:35:15;100836.35;;;-1.59;86.45
57900;BME280;60605;53.716;19.940;2024-03-08T20:40:25;100840.21;;;-1.72;86.95
57900;BME280;60605;53.716;19.940;2024-03-08T20:45:35;100835.19;;;-1.87;87.29
57900;BME280;60605;53.716;19.940;2024-03-08T20:50:42;100834.27;;;-1.99;87.87
57900;BME280;60605;53.716;19.940;2024-03-08T20:55:50;100834.66;;;-2.09;88.45
57900;BME280;60605;53.716;19.940;2024-03-08T21:00:55;100832.56;;;-2.18;88.91
57900;BME280;60605;53.716;19.940;2024-03-08T21:05:59;100831.36;;;-2.27;89.22
57900;BME280;60605;53.716;19.940;2024-03-08T21:11:02;100829.45;;;-2.37;89.26
57900;BME280;60605;53.716;19.940;2024-03-08T21:16:08;100821.36;;;-2.49;89.30
57900;BME280;60605;53.716;19.940;2024-03-08T21:21:14;100814.06;;;-2.59;89.55
57900;BME280;60605;53.716;19.940;2024-03-08T21:26:18;100812.83;;;-2.68;89.97
57900;BME280;60605;53.716;19.940;2024-03-08T21:31:24;100808.50;;;-2.74;90.82
57900;BME280;60605;53.716;19.940;2024-03-08T21:36:28;100808.83;;;-2.78;91.55
57900;BME280;60605;53.716;19.940;2024-03-08T21:41:32;100806.63;;;-2.81;92.49
57900;BME280;60605;53.716;19.940;2024-03-08T21:46:36;100801.04;;;-2.80;93.38
57900;BME280;60605;53.716;19.940;2024-03-08T21:51:41;100791.81;;;-2.81;93.73
57900;BME280;60605;53.716;19.940;2024-03-08T21:56:49;100784.50;;;-2.82;94.10
57900;BME280;60605;53.716;19.940;2024-03-08T22:01:52;100782.64;;;-2.84;94.69
57900;BME280;60605;53.716;19.940;2024-03-08T22:06:56;100777.90;;;-2.83;95.47
57900;BME280;60605;53.716;19.940;2024-03-08T22:11:59;100774.21;;;-2.83;95.78
57900;BME280;60605;53.716;19.940;2024-03-08T22:17:03;100773.92;;;-2.84;95.95
57900;BME280;60605;53.716;19.940;2024-03-08T22:22:10;100773.41;;;-2.85;96.23
57900;BME280;60605;53.716;19.940;2024-03-08T22:27:14;100772.33;;;-2.84;96.66
57900;BME280;60605;53.716;19.940;2024-03-08T22:32:18;100766.71;;;-2.78;97.65
57900;BME280;60605;53.716;19.940;2024-03-08T22:37:22;100766.98;;;-2.72;97.92
57900;BME280;60605;53.716;19.940;2024-03-08T22:42:26;100768.17;;;-2.66;98.06
57900;BME280;60605;53.716;19.940;2024-03-08T22:47:30;100764.92;;;-2.59;98.54
57900;BME280;60605;53.716;19.940;2024-03-08T22:52:36;100759.46;;;-2.49;99.31
57900;BME280;60605;53.716;19.940;2024-03-08T22:57:39;100764.08;;;-2.37;99.76
57900;BME280;60605;53.716;19.940;2024-03-08T23:02:43;100767.77;;;-2.29;99.88
57900;BME280;60605;53.716;19.940;2024-03-08T23:07:46;100765.65;;;-2.24;99.69
57900;BME280;60605;53.716;19.940;2024-03-08T23:12:50;100763.23;;;-2.20;99.81
57900;BME280;60605;53.716;19.940;2024-03-08T23:17:53;100760.69;;;-2.18;99.68
57900;BME280;60605;53.716;19.940;2024-03-08T23:22:59;100762.84;;;-2.20;99.21
57900;BME280;60605;53.716;19.940;2024-03-08T23:28:07;100763.23;;;-2.21;99.15
57900;BME280;60605;53.716;19.940;2024-03-08T23:33:12;100765.25;;;-2.23;99.11
57900;BME280;60605;53.716;19.940;2024-03-08T23:38:17;100773.20;;;-2.25;99.33
57900;BME280;60605;53.716;19.940;2024-03-08T23:43:21;100771.45;;;-2.25;99.75
57900;BME280;60605;53.716;19.940;2024-03-08T23:48:24;100768.73;;;-2.27;99.58
57900;BME280;60605;53.716;19.940;2024-03-08T23:53:29;100766.58;;;-2.30;99.65
57900;BME280;60605;53.716;19.940;2024-03-08T23:58:33;100765.48;;;-2.33;99.76
